Time;durP1;ratioP1;P1;durP2;ratioP2;P2;SDS_P1;SDS_P2;PMS_P1;PMS_P2;Temp;Humidity;BMP_temperature;BMP_pressure;BME280_temperature;BME280_humidity;BME280_pressure;Samples;Min_cycle;Max_cycle;Signal;HPM_P1;HPM_P2
2023/06/03 00:00:55;;;;;;;3.30;2.85;;;19.60;52.50;;;;;;5072739;28;20228;-69
2023/06/03 00:03:21;;;;;;;3.75;2.75;;;19.60;52.50;;;;;;5071649;28;20217;-71
2023/06/03 00:05:46;;;;;;;3.17;2.60;;;19.60;52.50;;;;;;5072635;28;20175;-70
2023/06/03 00:08:12;;;;;;;3.42;2.45;;;19.60;52.50;;;;;;5072333;28;20174;-69
2023/06/03 00:10:38;;;;;;;4.53;2.88;;;19.60;52.50;;;;;;5071985;28;20197;-68
2023/06/03 00:13:03;;;;;;;4.55;2.85;;;19.60;52.50;;;;;;5072785;28;20198;-67
2023/06/03 00:15:28;;;;;;;5.78;3.17;;;19.50;52.50;;;;;;5073346;28;20170;-67
2023/06/03 00:17:54;;;;;;;4.50;2.90;;;19.60;52.60;;;;;;5076212;28;20212;-67
2023/06/03 00:20:20;;;;;;;4.45;3.17;;;19.50;52.50;;;;;;5076411;28;20171;-67
2023/06/03 00:22:46;;;;;;;3.38;2.60;;;19.50;52.60;;;;;;5076722;28;20531;-67
2023/06/03 00:25:12;;;;;;;3.65;2.95;;;19.50;52.50;;;;;;5075583;28;20178;-68
2023/06/03 00:27:38;;;;;;;3.97;2.95;;;19.60;52.50;;;;;;5076463;28;20228;-68
2023/06/03 00:30:05;;;;;;;3.10;2.90;;;19.50;52.50;;;;;;5076533;28;20212;-69
2023/06/03 00:32:31;;;;;;;4.03;3.20;;;19.50;53.10;;;;;;5075820;28;20174;-72
2023/06/03 00:34:56;;;;;;;4.30;2.90;;;19.50;52.50;;;;;;5076556;28;20609;-69
2023/06/03 00:37:22;;;;;;;3.05;2.63;;;19.50;52.50;;;;;;5075970;28;20708;-71
2023/06/03 00:39:47;;;;;;;6.68;2.88;;;19.50;52.50;;;;;;5075599;28;20565;-68
2023/06/03 00:42:13;;;;;;;6.05;3.20;;;19.40;52.50;;;;;;5075981;28;20649;-70
2023/06/03 00:44:38;;;;;;;4.05;2.83;;;19.50;52.50;;;;;;5076521;28;20231;-71
2023/06/03 00:47:04;;;;;;;4.18;2.65;;;19.50;52.60;;;;;;5075649;28;20202;-71
2023/06/03 00:49:30;;;;;;;2.80;2.58;;;19.50;52.60;;;;;;5075962;28;20253;-70
2023/06/03 00:51:55;;;;;;;3.20;2.40;;;19.50;52.60;;;;;;5074919;28;20245;-69
2023/06/03 00:54:21;;;;;;;4.22;2.72;;;19.50;52.60;;;;;;5073590;28;20221;-68
2023/06/03 00:56:46;;;;;;;4.35;2.83;;;19.50;52.60;;;;;;5074814;28;20693;-69
2023/06/03 00:59:16;;;;;;;4.82;3.35;;;19.40;52.50;;;;;;5075322;28;20266;-70
2023/06/03 01:01:44;;;;;;;4.53;2.53;;;19.40;52.50;;;;;;5075867;28;20660;-71
2023/06/03 01:04:10;;;;;;;3.35;2.80;;;19.40;52.50;;;;;;5075557;28;20252;-72
2023/06/03 01:06:45;;;;;;;3.30;3.00;;;19.40;52.50;;;;;;5073863;28;20253;-71
2023/06/03 01:09:29;;;;;;;3.63;2.83;;;19.40;52.40;;;;;;5074464;28;20192;-69
2023/06/03 01:12:19;;;;;;;3.78;2.70;;;19.40;52.40;;;;;;5074495;28;20633;-68
2023/06/03 01:14:54;;;;;;;3.30;2.55;;;19.40;52.40;;;;;;5073767;28;20586;-69
2023/06/03 01:17:20;;;;;;;3.28;2.47;;;19.40;52.40;;;;;;5074091;28;20173;-69
2023/06/03 01:19:49;;;;;;;3.42;2.80;;;19.40;52.30;;;;;;5074614;28;20170;-69
2023/06/03 01:22:24;;;;;;;3.42;2.47;;;19.40;52.40;;;;;;5074577;28;20177;-69
2023/06/03 01:24:50;;;;;;;4.20;2.70;;;19.40;52.40;;;;;;5075659;28;20185;-69
2023/06/03 01:27:16;;;;;;;3.90;2.65;;;19.40;52.40;;;;;;5073768;28;20175;-69
2023/06/03 01:29:42;;;;;;;3.63;2.50;;;19.40;52.30;;;;;;5074695;28;20209;-70
2023/06/03 01:32:12;;;;;;;4.75;2.70;;;19.30;52.20;;;;;;5073879;28;20664;-72
2023/06/03 01:34:39;;;;;;;5.57;2.70;;;19.40;52.30;;;;;;5074734;28;20218;-73
2023/06/03 01:37:05;;;;;;;3.30;2.67;;;19.40;52.30;;;;;;5074076;28;20222;-71
2023/06/03 01:39:30;;;;;;;5.32;2.60;;;19.40;52.30;;;;;;5073953;28;20692;-70
2023/06/03 01:41:56;;;;;;;2.95;2.65;;;19.40;52.10;;;;;;5074399;28;20179;-69
2023/06/03 01:44:21;;;;;;;3.08;2.80;;;19.40;52.20;;;;;;5073484;28;20167;-70
2023/06/03 01:46:47;;;;;;;5.30;2.70;;;19.30;52.10;;;;;;5074233;28;20200;-70
2023/06/03 01:49:13;;;;;;;4.55;3.20;;;19.30;52.10;;;;;;5073005;28;20524;-70
2023/06/03 01:51:39;;;;;;;2.40;2.20;;;19.30;52.10;;;;;;5074889;28;20652;-70
2023/06/03 01:54:04;;;;;;;2.97;2.65;;;19.30;52.00;;;;;;5075181;28;20218;-69
2023/06/03 01:56:30;;;;;;;3.72;2.22;;;19.30;52.70;;;;;;5073869;28;20173;-69
2023/06/03 01:58:55;;;;;;;4.10;2.38;;;19.30;52.00;;;;;;5073834;28;20190;-69
2023/06/03 02:01:21;;;;;;;2.65;2.17;;;19.30;52.00;;;;;;5074488;28;20656;-71
2023/06/03 02:03:47;;;;;;;3.00;2.58;;;19.30;52.00;;;;;;5073971;28;20641;-71
2023/06/03 02:06:13;;;;;;;3.60;2.42;;;19.30;52.00;;;;;;5074653;28;20170;-71
2023/06/03 02:08:38;;;;;;;4.82;2.50;;;19.30;51.90;;;;;;5074779;28;20262;-70
2023/06/03 02:11:04;;;;;;;4.15;2.95;;;19.30;52.00;;;;;;5073971;28;20690;-69
2023/06/03 02:13:30;;;;;;;2.58;2.33;;;19.30;51.80;;;;;;5074858;28;20354;-69
2023/06/03 02:15:55;;;;;;;4.35;2.33;;;19.30;51.80;;;;;;5074753;28;20193;-68
2023/06/03 02:18:21;;;;;;;2.38;2.17;;;19.30;51.80;;;;;;5073606;28;20183;-69
2023/06/03 02:20:46;;;;;;;2.47;2.20;;;19.30;51.80;;;;;;5074559;28;20179;-69
2023/06/03 02:23:12;;;;;;;4.97;2.58;;;19.20;51.70;;;;;;5073992;28;20629;-69
2023/06/03 02:25:37;;;;;;;3.70;2.55;;;19.30;51.80;;;;;;5073715;28;20167;-69
2023/06/03 02:28:03;;;;;;;3.17;2.53;;;19.20;51.70;;;;;;5074034;28;20182;-70
2023/06/03 02:30:28;;;;;;;2.88;2.30;;;19.20;51.70;;;;;;5074067;28;20253;-72
2023/06/03 02:32:54;;;;;;;2.58;2.25;;;19.20;51.70;;;;;;5073476;28;20521;-71
2023/06/03 02:35:19;;;;;;;2.72;2.22;;;19.20;51.70;;;;;;5073914;28;20170;-72
2023/06/03 02:37:45;;;;;;;2.70;2.33;;;19.20;51.50;;;;;;5073046;28;20767;-69
2023/06/03 02:40:11;;;;;;;3.38;2.40;;;19.20;51.50;;;;;;5073572;28;20583;-70
2023/06/03 02:42:37;;;;;;;3.38;2.20;;;19.20;51.60;;;;;;5073953;28;20189;-70
2023/06/03 02:45:03;;;;;;;2.92;2.50;;;19.20;51.50;;;;;;5073454;28;20227;-70
2023/06/03 02:47:29;;;;;;;3.30;2.28;;;19.20;51.50;;;;;;5073775;28;20250;-71
2023/06/03 02:49:55;;;;;;;2.92;2.08;;;19.20;51.40;;;;;;5074060;28;20254;-69
2023/06/03 02:52:22;;;;;;;3.22;2.00;;;19.20;51.50;;;;;;5072943;28;20362;-70
2023/06/03 02:54:48;;;;;;;3.95;2.50;;;19.20;51.40;;;;;;5073658;28;20558;-70
2023/06/03 02:57:14;;;;;;;2.35;2.13;;;19.20;51.50;;;;;;5073326;28;20189;-69
2023/06/03 02:59:39;;;;;;;2.88;2.10;;;19.20;51.30;;;;;;5072790;28;20170;-70
2023/06/03 03:02:05;;;;;;;1.88;1.77;;;19.10;51.40;;;;;;5073799;28;20189;-71
2023/06/03 03:04:33;;;;;;;2.47;2.00;;;19.20;51.30;;;;;;5073671;28;20181;-71
2023/06/03 03:06:59;;;;;;;3.85;1.90;;;19.10;51.20;;;;;;5072865;28;20178;-70
2023/06/03 03:09:25;;;;;;;3.08;2.00;;;19.10;51.20;;;;;;5073016;28;20186;-69
2023/06/03 03:11:51;;;;;;;2.40;2.20;;;19.10;51.20;;;;;;5073320;28;20178;-69
2023/06/03 03:14:17;;;;;;;3.28;2.30;;;19.10;51.20;;;;;;5072486;28;20301;-69
2023/06/03 03:16:43;;;;;;;1.92;1.67;;;19.10;51.10;;;;;;5073501;28;20174;-69
2023/06/03 03:19:09;;;;;;;2.05;1.95;;;19.10;51.10;;;;;;5073057;28;20637;-69
2023/06/03 03:21:35;;;;;;;3.05;2.08;;;19.10;51.10;;;;;;5072538;28;20236;-69
2023/06/03 03:24:01;;;;;;;2.28;2.08;;;19.10;51.10;;;;;;5073212;28;20186;-69
2023/06/03 03:26:27;;;;;;;2.72;1.95;;;19.10;51.10;;;;;;5072796;28;20170;-69
2023/06/03 03:28:53;;;;;;;2.20;2.00;;;19.10;51.00;;;;;;5071187;28;20213;-70
2023/06/03 03:31:20;;;;;;;2.20;1.85;;;19.10;50.90;;;;;;5071781;28;20174;-72
2023/06/03 03:33:47;;;;;;;3.38;2.30;;;19.10;51.00;;;;;;5072124;28;20259;-71
2023/06/03 03:36:18;;;;;;;2.20;1.92;;;19.00;50.80;;;;;;5072154;28;20175;-72
2023/06/03 03:38:44;;;;;;;3.15;1.90;;;19.00;50.90;;;;;;5071646;28;20631;-71
2023/06/03 03:41:09;;;;;;;2.13;1.92;;;19.10;50.80;;;;;;5072180;28;20166;-70
2023/06/03 03:43:35;;;;;;;3.42;2.00;;;19.00;50.80;;;;;;5073137;28;20181;-70
2023/06/03 03:46:00;;;;;;;2.67;2.05;;;19.00;50.90;;;;;;5072826;28;20193;-69
2023/06/03 03:48:28;;;;;;;3.75;2.40;;;19.00;50.70;;;;;;5072019;28;20251;-71
2023/06/03 03:50:54;;;;;;;3.08;2.03;;;19.00;50.80;;;;;;5070984;28;20220;-69
2023/06/03 03:53:33;;;;;;;3.75;2.13;;;19.00;50.70;;;;;;5071285;28;20685;-69
2023/06/03 03:55:59;;;;;;;3.35;2.30;;;19.00;50.80;;;;;;5072453;28;20178;-68
2023/06/03 03:58:36;;;;;;;2.53;1.95;;;19.00;50.70;;;;;;5072403;28;20167;-69
2023/06/03 04:01:09;;;;;;;3.05;1.98;;;19.00;50.60;;;;;;5072602;28;20543;-70
2023/06/03 04:03:35;;;;;;;2.63;1.80;;;19.00;50.60;;;;;;5072324;28;20178;-70
2023/06/03 04:06:01;;;;;;;2.97;1.77;;;19.10;50.60;;;;;;5072737;28;20233;-69
2023/06/03 04:08:45;;;;;;;2.97;2.05;;;19.10;50.40;;;;;;5072548;28;20263;-70
2023/06/03 04:11:23;;;;;;;4.28;1.60;;;19.10;50.40;;;;;;5071848;28;20182;-68
2023/06/03 04:13:49;;;;;;;5.22;2.10;;;19.00;50.50;;;;;;5072589;28;20209;-68
2023/06/03 04:16:44;;;;;;;3.15;2.20;;;19.10;50.50;;;;;;5071668;28;20174;-69
2023/06/03 04:19:16;;;;;;;2.42;1.83;;;19.00;50.30;;;;;;5071415;28;20216;-68
2023/06/03 04:21:41;;;;;;;3.53;1.98;;;19.00;50.30;;;;;;5071317;28;20189;-68
2023/06/03 04:24:07;;;;;;;1.83;1.73;;;19.00;50.20;;;;;;5071617;28;20174;-68
2023/06/03 04:26:34;;;;;;;1.50;1.40;;;19.00;50.20;;;;;;5071320;28;20175;-69
2023/06/03 04:28:59;;;;;;;4.10;2.25;;;19.00;50.20;;;;;;5072490;28;20552;-69
2023/06/03 04:31:25;;;;;;;2.55;1.60;;;19.00;50.20;;;;;;5071571;28;20747;-71
2023/06/03 04:33:51;;;;;;;1.90;1.70;;;19.00;50.20;;;;;;5072469;28;20813;-71
2023/06/03 04:36:16;;;;;;;4.22;1.83;;;19.00;50.20;;;;;;5072201;28;20170;-71
2023/06/03 04:38:43;;;;;;;3.22;1.83;;;19.00;50.20;;;;;;5071531;28;20271;-70
2023/06/03 04:41:10;;;;;;;2.45;1.48;;;19.00;50.10;;;;;;5072016;28;20194;-70
2023/06/03 04:43:38;;;;;;;3.28;1.70;;;19.00;50.00;;;;;;5072422;28;20543;-69
2023/06/03 04:46:05;;;;;;;2.92;1.90;;;19.00;50.00;;;;;;5071843;28;20186;-71
2023/06/03 04:48:33;;;;;;;2.40;1.42;;;19.00;49.90;;;;;;5072252;28;20364;-70
2023/06/03 04:51:00;;;;;;;1.77;1.52;;;19.10;50.00;;;;;;5072310;28;20517;-69
2023/06/03 04:53:26;;;;;;;2.33;1.80;;;19.00;50.00;;;;;;5071037;28;20210;-69
2023/06/03 04:55:51;;;;;;;2.25;1.35;;;19.00;49.90;;;;;;5072096;28;20269;-68
2023/06/03 04:58:19;;;;;;;1.98;1.52;;;19.00;49.70;;;;;;5072070;28;20191;-69
2023/06/03 05:00:45;;;;;;;3.22;2.00;;;19.00;49.90;;;;;;5071924;28;20202;-70
2023/06/03 05:03:10;;;;;;;1.58;1.25;;;19.00;49.90;;;;;;5075464;28;20664;-72
2023/06/03 05:05:41;;;;;;;1.85;1.48;;;19.00;50.20;;;;;;5075244;28;20172;-71
2023/06/03 05:08:07;;;;;;;2.10;1.50;;;19.10;49.80;;;;;;5075689;28;20237;-69
2023/06/03 05:10:33;;;;;;;5.13;1.60;;;19.00;49.70;;;;;;5075656;28;20175;-69
2023/06/03 05:12:59;;;;;;;2.28;1.73;;;19.00;49.70;;;;;;5075294;28;20189;-68
2023/06/03 05:15:25;;;;;;;2.35;1.67;;;19.00;49.80;;;;;;5075680;28;20257;-69
2023/06/03 05:17:51;;;;;;;2.15;1.60;;;19.00;49.80;;;;;;5075690;28;20177;-68
2023/06/03 05:20:17;;;;;;;1.75;1.42;;;19.00;49.80;;;;;;5074578;28;20266;-69
2023/06/03 05:22:43;;;;;;;2.13;1.50;;;19.00;49.70;;;;;;5075850;28;20603;-69
2023/06/03 05:25:08;;;;;;;3.35;1.48;;;19.00;49.80;;;;;;5075080;28;20636;-69
2023/06/03 05:27:34;;;;;;;2.03;1.50;;;19.00;49.90;;;;;;5074891;28;20519;-69
2023/06/03 05:30:00;;;;;;;2.88;1.17;;;19.00;49.70;;;;;;5075551;28;20170;-69
2023/06/03 05:32:25;;;;;;;4.68;1.52;;;19.10;49.80;;;;;;5075261;28;20175;-73
2023/06/03 05:34:50;;;;;;;1.58;1.20;;;19.10;49.80;;;;;;5074694;28;20210;-72
2023/06/03 05:37:17;;;;;;;1.80;1.50;;;19.10;49.80;;;;;;5074852;28;20221;-70
2023/06/03 05:39:42;;;;;;;1.50;1.40;;;19.10;49.80;;;;;;5075233;28;20547;-70
2023/06/03 05:42:08;;;;;;;1.42;1.25;;;19.10;49.70;;;;;;5074071;28;20178;-69
2023/06/03 05:44:33;;;;;;;1.75;1.50;;;19.10;49.90;;;;;;5075046;28;20190;-71
2023/06/03 05:46:59;;;;;;;1.50;1.23;;;19.20;50.40;;;;;;5075011;28;20171;-70
2023/06/03 05:49:24;;;;;;;1.30;1.20;;;19.10;49.80;;;;;;5073983;28;20178;-70
2023/06/03 05:51:50;;;;;;;1.85;1.13;;;19.10;49.80;;;;;;5074954;28;20185;-69
2023/06/03 05:54:15;;;;;;;1.65;1.20;;;19.10;49.90;;;;;;5074438;28;20210;-69
2023/06/03 05:56:44;;;;;;;2.42;1.50;;;19.10;49.80;;;;;;5074261;28;20178;-69
2023/06/03 05:59:09;;;;;;;2.30;1.20;;;19.10;49.80;;;;;;5074555;28;20182;-69
2023/06/03 06:01:35;;;;;;;1.17;0.98;;;19.10;49.70;;;;;;5074975;28;20181;-70
2023/06/03 06:04:00;;;;;;;2.63;1.40;;;19.10;49.80;;;;;;5074188;28;20185;-69
2023/06/03 06:06:26;;;;;;;2.67;1.40;;;19.10;49.90;;;;;;5074441;28;20588;-71
2023/06/03 06:08:51;;;;;;;1.63;1.50;;;19.10;49.90;;;;;;5074347;28;20247;-69
2023/06/03 06:11:17;;;;;;;2.65;1.55;;;19.10;50.00;;;;;;5074212;28;20610;-69
2023/06/03 06:13:43;;;;;;;3.28;1.40;;;19.10;50.00;;;;;;5073832;28;20206;-69
2023/06/03 06:16:08;;;;;;;3.75;1.58;;;19.10;50.00;;;;;;5073683;28;20196;-70
2023/06/03 06:18:34;;;;;;;5.47;1.50;;;19.10;50.00;;;;;;5074573;28;20525;-66
2023/06/03 06:21:00;;;;;;;6.03;1.50;;;19.20;50.10;;;;;;5073356;28;20186;-67
2023/06/03 06:23:25;;;;;;;2.28;1.00;;;19.10;50.10;;;;;;5073237;28;20178;-66
2023/06/03 06:25:52;;;;;;;3.92;1.70;;;19.20;50.40;;;;;;5074535;28;20543;-67
2023/06/03 06:28:18;;;;;;;2.97;1.60;;;19.20;50.30;;;;;;5074038;28;20167;-68
2023/06/03 06:30:44;;;;;;;4.88;1.30;;;19.20;50.10;;;;;;5073683;28;20175;-68
2023/06/03 06:33:11;;;;;;;2.60;1.40;;;19.20;50.30;;;;;;5073855;28;20182;-73
2023/06/03 06:35:37;;;;;;;2.10;1.10;;;19.20;50.30;;;;;;5072939;28;20193;-67
2023/06/03 06:38:03;;;;;;;3.15;1.45;;;19.20;50.00;;;;;;5073128;28;20218;-67
2023/06/03 06:40:30;;;;;;;2.80;1.27;;;19.20;50.20;;;;;;5073840;28;20198;-67
2023/06/03 06:42:56;;;;;;;5.18;1.10;;;19.20;50.00;;;;;;5074002;28;20178;-66
2023/06/03 06:45:27;;;;;;;3.42;1.55;;;19.30;50.10;;;;;;5071779;28;20277;-68
2023/06/03 06:48:11;;;;;;;2.00;1.35;;;19.30;50.10;;;;;;5073950;28;20199;-67
2023/06/03 06:50:53;;;;;;;2.22;1.30;;;19.30;50.00;;;;;;5073928;28;20184;-68
2023/06/03 06:53:19;;;;;;;1.52;1.42;;;19.30;50.00;;;;;;5073298;28;20208;-67
2023/06/03 06:55:57;;;;;;;3.22;1.40;;;19.30;50.00;;;;;;5073753;28;20656;-66
2023/06/03 06:58:25;;;;;;;6.95;1.40;;;19.30;49.90;;;;;;5072762;28;20170;-67
2023/06/03 07:00:50;;;;;;;2.15;1.20;;;19.40;49.80;;;;;;5073609;28;20228;-67
2023/06/03 07:03:18;;;;;;;2.38;1.30;;;19.40;49.90;;;;;;5073419;28;20174;-69
2023/06/03 07:05:43;;;;;;;3.15;0.93;;;19.40;49.80;;;;;;5073020;28;20174;-69
2023/06/03 07:08:09;;;;;;;3.85;1.20;;;19.40;49.90;;;;;;5073419;28;20597;-68
2023/06/03 07:10:38;;;;;;;3.08;1.25;;;19.40;49.80;;;;;;5073494;28;20194;-68
2023/06/03 07:13:05;;;;;;;1.83;1.20;;;19.40;49.70;;;;;;5072665;28;20177;-68
2023/06/03 07:15:30;;;;;;;1.85;1.20;;;19.30;49.70;;;;;;5073052;28;20179;-67
2023/06/03 07:17:56;;;;;;;1.67;1.00;;;19.30;49.70;;;;;;5073211;28;20197;-67
2023/06/03 07:20:46;;;;;;;1.65;1.20;;;19.30;49.80;;;;;;5072522;28;20178;-67
2023/06/03 07:23:23;;;;;;;2.20;1.15;;;19.30;49.70;;;;;;5073036;28;20261;-68
2023/06/03 07:25:50;;;;;;;2.22;1.00;;;19.30;49.70;;;;;;5073020;28;20620;-67
2023/06/03 07:28:20;;;;;;;3.45;1.45;;;19.40;49.70;;;;;;5072150;28;20614;-67
2023/06/03 07:30:52;;;;;;;1.10;0.90;;;19.40;49.70;;;;;;5073232;28;20212;-68
2023/06/03 07:33:27;;;;;;;2.35;0.98;;;19.40;49.70;;;;;;5072085;28;20206;-70
2023/06/03 07:35:57;;;;;;;1.88;1.10;;;19.40;49.70;;;;;;5073095;28;20185;-68
2023/06/03 07:38:37;;;;;;;2.58;1.00;;;19.40;49.70;;;;;;5072518;28;20218;-69
2023/06/03 07:41:04;;;;;;;1.95;0.98;;;19.40;49.70;;;;;;5071849;28;20200;-66
2023/06/03 07:43:29;;;;;;;1.02;0.88;;;19.40;49.70;;;;;;5072666;28;20182;-65
2023/06/03 07:45:55;;;;;;;2.05;1.13;;;19.50;49.80;;;;;;5072683;28;20174;-66
2023/06/03 07:48:21;;;;;;;2.42;1.13;;;19.50;49.70;;;;;;5071720;28;20257;-68
2023/06/03 07:50:47;;;;;;;1.42;1.20;;;19.50;49.70;;;;;;5071571;28;20179;-70
2023/06/03 07:53:21;;;;;;;1.13;0.90;;;19.50;49.70;;;;;;5072588;28;20224;-65
2023/06/03 07:55:50;;;;;;;2.17;1.00;;;19.50;49.60;;;;;;5071150;28;20178;-65
2023/06/03 07:58:16;;;;;;;2.45;1.17;;;19.50;49.70;;;;;;5071341;28;20559;-67
2023/06/03 08:00:46;;;;;;;3.38;1.20;;;19.60;49.80;;;;;;5072953;28;20266;-68
2023/06/03 08:03:14;;;;;;;2.38;1.15;;;19.60;49.80;;;;;;5070438;28;20188;-68
2023/06/03 08:05:41;;;;;;;2.60;1.30;;;19.60;49.80;;;;;;5071423;28;20174;-67
2023/06/03 08:08:09;;;;;;;2.05;1.00;;;19.60;49.80;;;;;;5072409;28;20177;-68
2023/06/03 08:10:35;;;;;;;1.52;0.90;;;19.60;50.00;;;;;;5070953;28;20181;-66
2023/06/03 08:13:01;;;;;;;4.10;1.20;;;19.70;50.00;;;;;;5072465;28;20166;-65
2023/06/03 08:15:35;;;;;;;1.85;1.00;;;19.60;50.00;;;;;;5071566;28;20595;-66
2023/06/03 08:18:02;;;;;;;1.10;1.00;;;19.60;50.00;;;;;;5072377;28;20175;-66
2023/06/03 08:20:28;;;;;;;1.73;1.00;;;19.60;50.10;;;;;;5071198;28;20178;-68
2023/06/03 08:22:55;;;;;;;2.33;0.90;;;19.70;50.10;;;;;;5070730;28;20581;-65
2023/06/03 08:25:20;;;;;;;0.90;0.90;;;19.70;50.10;;;;;;5080256;28;20708;-67
2023/06/03 08:27:46;;;;;;;1.20;0.98;;;19.70;50.10;;;;;;5077537;28;20257;-67
2023/06/03 08:30:15;;;;;;;4.88;1.33;;;19.70;50.10;;;;;;5091802;28;20230;-68
2023/06/03 08:32:41;;;;;;;1.80;1.00;;;19.70;50.10;;;;;;5082417;28;20184;-70
2023/06/03 08:35:08;;;;;;;2.17;0.82;;;19.70;50.10;;;;;;5071411;28;20210;-70
2023/06/03 08:37:33;;;;;;;2.00;1.10;;;19.70;50.10;;;;;;5074345;28;20222;-69
2023/06/03 08:40:00;;;;;;;1.50;1.00;;;19.70;50.10;;;;;;5075189;28;20583;-68
2023/06/03 08:42:30;;;;;;;1.75;1.15;;;19.70;50.10;;;;;;5055865;28;20233;-68
2023/06/03 08:45:04;;;;;;;1.80;1.00;;;19.70;50.10;;;;;;5055443;28;20306;-68
2023/06/03 08:47:36;;;;;;;2.47;1.08;;;19.80;50.20;;;;;;5063881;28;20183;-68
2023/06/03 08:50:10;;;;;;;2.45;0.90;;;19.80;50.10;;;;;;5076306;28;20178;-68
2023/06/03 08:52:37;;;;;;;3.20;1.20;;;19.80;50.10;;;;;;5075640;28;20253;-67
2023/06/03 08:55:04;;;;;;;1.77;1.17;;;19.90;50.20;;;;;;5076163;28;20214;-66
2023/06/03 08:57:34;;;;;;;1.42;1.00;;;19.80;50.20;;;;;;5073793;28;20174;-68
2023/06/03 08:59:59;;;;;;;1.65;0.85;;;19.90;50.20;;;;;;5076410;28;20186;-68
2023/06/03 09:02:27;;;;;;;2.17;1.08;;;19.90;50.20;;;;;;5074528;28;20209;-68
2023/06/03 09:04:52;;;;;;;1.42;0.73;;;19.90;50.20;;;;;;5073974;28;20659;-68
2023/06/03 09:07:18;;;;;;;1.88;0.98;;;19.90;50.20;;;;;;5075757;28;20182;-68
2023/06/03 09:09:44;;;;;;;2.22;0.90;;;19.90;50.10;;;;;;5074696;28;20257;-67
2023/06/03 09:12:09;;;;;;;1.23;0.80;;;19.90;50.20;;;;;;5073387;28;20507;-67
2023/06/03 09:14:35;;;;;;;0.98;0.90;;;19.90;50.10;;;;;;5074663;28;20684;-67
2023/06/03 09:17:00;;;;;;;0.70;0.60;;;19.90;50.00;;;;;;5074486;28;20183;-67
2023/06/03 09:19:26;;;;;;;0.77;0.77;;;19.90;50.00;;;;;;5074636;28;20184;-67
2023/06/03 09:21:53;;;;;;;1.90;0.80;;;19.90;50.00;;;;;;5075803;28;20250;-67
2023/06/03 09:24:19;;;;;;;2.78;1.00;;;20.00;50.10;;;;;;5075629;28;20185;-68
2023/06/03 09:26:44;;;;;;;1.27;0.80;;;19.90;50.00;;;;;;5074795;28;20171;-67
2023/06/03 09:29:13;;;;;;;1.25;0.90;;;20.00;50.00;;;;;;5074199;28;20171;-67
2023/06/03 09:31:39;;;;;;;1.52;1.00;;;20.00;50.00;;;;;;5075525;28;20179;-68
2023/06/03 09:34:04;;;;;;;1.38;1.00;;;20.00;49.90;;;;;;5074530;28;20787;-68
2023/06/03 09:36:30;;;;;;;0.70;0.60;;;20.00;49.80;;;;;;5073875;28;20175;-68
2023/06/03 09:38:56;;;;;;;1.27;0.60;;;20.00;49.80;;;;;;5073669;28;20225;-68
2023/06/03 09:41:23;;;;;;;1.13;0.93;;;20.10;49.80;;;;;;5074247;28;20166;-68
2023/06/03 09:44:02;;;;;;;1.33;0.80;;;20.10;49.70;;;;;;5075113;28;20633;-67
2023/06/03 09:46:32;;;;;;;1.27;0.70;;;20.10;49.70;;;;;;5075039;28;20185;-68
2023/06/03 09:49:11;;;;;;;0.80;0.80;;;20.10;49.60;;;;;;5073324;28;20179;-68
2023/06/03 09:51:47;;;;;;;1.00;0.90;;;20.10;49.60;;;;;;5075001;28;20543;-67
2023/06/03 09:54:17;;;;;;;1.20;1.10;;;20.20;49.60;;;;;;5074102;28;20248;-67
2023/06/03 09:56:44;;;;;;;1.45;0.70;;;20.20;49.60;;;;;;5075119;28;20184;-67
2023/06/03 09:59:17;;;;;;;1.20;0.90;;;20.20;49.40;;;;;;5074557;28;20656;-68
2023/06/03 10:01:45;;;;;;;0.75;0.73;;;20.20;49.40;;;;;;5074298;28;20184;-68
2023/06/03 10:04:11;;;;;;;0.90;0.77;;;20.20;49.40;;;;;;5074664;28;20202;-69
2023/06/03 10:06:37;;;;;;;1.00;0.90;;;20.20;49.20;;;;;;5074960;28;20653;-68
2023/06/03 10:09:22;;;;;;;1.13;1.00;;;20.30;49.20;;;;;;5073967;28;20630;-67
2023/06/03 10:11:52;;;;;;;0.68;0.68;;;20.30;49.10;;;;;;5074817;28;20170;-67
2023/06/03 10:14:26;;;;;;;0.95;0.68;;;20.30;49.10;;;;;;5074315;28;20256;-67
2023/06/03 10:17:05;;;;;;;0.68;0.68;;;20.30;49.10;;;;;;5073801;28;20185;-67
2023/06/03 10:19:35;;;;;;;0.70;0.70;;;20.30;49.00;;;;;;5074619;28;20209;-67
2023/06/03 10:22:01;;;;;;;1.02;0.85;;;20.30;49.00;;;;;;5073849;28;20182;-66
2023/06/03 10:24:27;;;;;;;2.28;0.77;;;20.30;49.00;;;;;;5074197;28;20183;-67
2023/06/03 10:26:54;;;;;;;0.80;0.77;;;20.40;49.00;;;;;;5073140;28;20224;-67
2023/06/03 10:29:19;;;;;;;0.60;0.60;;;20.40;49.10;;;;;;5073205;28;20224;-68
2023/06/03 10:31:45;;;;;;;1.05;0.90;;;20.40;49.00;;;;;;5073035;28;20535;-68
2023/06/03 10:34:17;;;;;;;1.10;0.80;;;20.40;48.90;;;;;;5072635;28;20210;-69
2023/06/03 10:36:42;;;;;;;0.77;0.60;;;20.40;48.80;;;;;;5072514;28;20178;-69
2023/06/03 10:39:11;;;;;;;1.95;0.98;;;20.30;48.80;;;;;;5073565;28;20283;-68
2023/06/03 10:41:38;;;;;;;1.13;0.77;;;20.40;48.80;;;;;;5073919;28;20219;-68
2023/06/03 10:44:03;;;;;;;0.77;0.77;;;20.40;48.80;;;;;;5071944;28;20544;-68
2023/06/03 10:46:29;;;;;;;0.60;0.60;;;20.40;48.70;;;;;;5073686;28;20170;-68
2023/06/03 10:48:54;;;;;;;1.58;0.60;;;20.40;48.70;;;;;;5073872;28;20174;-68
2023/06/03 10:51:44;;;;;;;0.90;0.80;;;20.40;48.70;;;;;;5071517;28;20261;-67
2023/06/03 10:54:30;;;;;;;1.60;0.70;;;20.40;48.70;;;;;;5062142;28;20221;-67
2023/06/03 10:57:08;;;;;;;1.63;0.80;;;20.50;48.60;;;;;;5072749;28;20178;-67
2023/06/03 10:59:44;;;;;;;1.23;0.73;;;20.40;48.50;;;;;;5072371;28;20312;-69
2023/06/03 11:02:10;;;;;;;1.90;0.70;;;20.50;48.50;;;;;;5073253;28;20565;-68
2023/06/03 11:04:36;;;;;;;1.00;0.60;;;20.40;49.20;;;;;;5072833;28;20178;-69
2023/06/03 11:07:02;;;;;;;0.70;0.70;;;20.40;48.40;;;;;;5073539;28;20185;-67
2023/06/03 11:09:40;;;;;;;1.30;0.57;;;20.50;48.50;;;;;;5073383;28;20183;-67
2023/06/03 11:12:09;;;;;;;1.10;0.80;;;20.50;48.50;;;;;;5072537;28;20174;-66
2023/06/03 11:14:40;;;;;;;0.82;0.70;;;20.50;48.40;;;;;;5073405;28;20256;-67
2023/06/03 11:17:06;;;;;;;0.90;0.80;;;20.50;48.40;;;;;;5073102;28;20193;-67
2023/06/03 11:19:36;;;;;;;0.93;0.70;;;20.50;48.30;;;;;;5072758;28;20202;-67
2023/06/03 11:22:04;;;;;;;0.60;0.60;;;20.50;48.20;;;;;;5073537;28;20205;-67
2023/06/03 11:24:39;;;;;;;1.00;0.60;;;20.50;48.30;;;;;;5072905;28;20232;-67
2023/06/03 11:27:13;;;;;;;1.08;0.98;;;20.50;48.10;;;;;;5072540;28;20174;-67
2023/06/03 11:32:14;;;;;;;1.00;0.63;;;20.50;48.20;;;;;;5073130;28;20182;-68
2023/06/03 11:34:39;;;;;;;0.60;0.57;;;20.50;48.00;;;;;;5073282;28;20218;-70
2023/06/03 11:37:05;;;;;;;0.60;0.60;;;20.50;48.00;;;;;;5071825;28;20209;-68
2023/06/03 11:39:59;;;;;;;1.33;0.95;;;20.40;47.90;;;;;;5072353;28;20182;-68
2023/06/03 11:42:24;;;;;;;1.35;0.90;;;20.60;48.00;;;;;;5072824;28;20178;-68
2023/06/03 11:44:50;;;;;;;0.70;0.70;;;20.60;48.00;;;;;;5073041;28;20176;-68
2023/06/03 11:47:15;;;;;;;0.63;0.43;;;20.50;47.80;;;;;;5071874;28;20270;-69
2023/06/03 11:49:41;;;;;;;1.00;0.80;;;20.60;47.80;;;;;;5073026;28;20174;-68
2023/06/03 11:52:08;;;;;;;1.13;0.70;;;20.60;47.80;;;;;;5072625;28;20193;-67
2023/06/03 11:54:34;;;;;;;0.70;0.70;;;20.60;47.80;;;;;;5072140;28;20649;-67
2023/06/03 11:57:02;;;;;;;0.45;0.45;;;20.60;47.70;;;;;;5072919;28;20175;-67
2023/06/03 11:59:35;;;;;;;0.85;0.70;;;20.60;47.60;;;;;;5072685;28;20204;-69
2023/06/03 12:02:04;;;;;;;0.77;0.68;;;20.70;47.60;;;;;;5072212;28;20202;-68
2023/06/03 12:04:30;;;;;;;1.48;0.70;;;20.70;47.60;;;;;;5072364;28;20500;-69
2023/06/03 12:06:56;;;;;;;0.60;0.50;;;20.70;47.60;;;;;;5072800;28;20200;-67
2023/06/03 12:09:26;;;;;;;0.82;0.73;;;20.70;47.50;;;;;;5071573;28;20181;-67
2023/06/03 12:11:52;;;;;;;0.52;0.52;;;20.70;47.40;;;;;;5071947;28;20190;-67
2023/06/03 12:14:28;;;;;;;0.60;0.60;;;20.70;47.30;;;;;;5072221;28;20214;-67
2023/06/03 12:16:55;;;;;;;0.60;0.60;;;20.70;47.40;;;;;;5072705;28;20177;-67
2023/06/03 12:19:20;;;;;;;0.88;0.60;;;20.70;47.10;;;;;;5072299;28;20175;-67
2023/06/03 12:21:57;;;;;;;0.70;0.52;;;20.70;47.20;;;;;;5070595;28;20175;-67
2023/06/03 12:24:30;;;;;;;0.57;0.55;;;20.70;47.20;;;;;;5072470;28;20178;-67
2023/06/03 12:26:56;;;;;;;1.35;0.60;;;20.70;47.00;;;;;;5072655;28;20198;-66
2023/06/03 12:29:24;;;;;;;0.50;0.50;;;20.70;47.10;;;;;;5071615;28;20642;-67
2023/06/03 12:32:02;;;;;;;0.80;0.60;;;20.70;47.10;;;;;;5072487;28;20228;-68
2023/06/03 12:34:33;;;;;;;0.50;0.50;;;20.70;46.90;;;;;;5071988;28;20305;-69
2023/06/03 12:36:59;;;;;;;0.70;0.70;;;20.80;46.90;;;;;;5071736;28;20178;-68
2023/06/03 12:39:50;;;;;;;0.68;0.68;;;20.80;46.80;;;;;;5072384;28;20174;-68
2023/06/03 12:42:17;;;;;;;0.60;0.60;;;20.80;46.80;;;;;;5072116;28;20205;-68
2023/06/03 12:44:43;;;;;;;0.60;0.60;;;20.80;46.60;;;;;;5071555;28;20649;-68
2023/06/03 12:47:09;;;;;;;2.28;0.68;;;20.90;46.60;;;;;;5071893;28;20337;-68
2023/06/03 12:49:35;;;;;;;0.60;0.60;;;20.90;46.40;;;;;;5071974;28;20261;-68
2023/06/03 12:52:10;;;;;;;0.85;0.73;;;20.90;46.50;;;;;;5071264;28;20166;-67
2023/06/03 12:54:36;;;;;;;0.82;0.68;;;20.90;46.50;;;;;;5072409;28;20213;-67